Time;durP1;ratioP1;P1;durP2;ratioP2;P2;SDS_P1;SDS_P2;PMS_P1;PMS_P2;Temp;Humidity;BMP_temperature;BMP_pressure;BME280_temperature;BME280_humidity;BME280_pressure;Samples;Min_cycle;Max_cycle;Signal;HPM_P1;HPM_P2
2023/09/24 00:02:16;;;;;;;;;;;;;;;25.75;42.73;99320.84;5096258;28;20306;-77
2023/09/24 00:04:44;;;;;;;;;;;;;;;25.65;42.77;99329.00;5077330;28;19961;-77
2023/09/24 00:07:10;;;;;;;;;;;;;;;25.51;42.92;99319.94;5095531;28;19920;-78
2023/09/24 00:09:35;;;;;;;;;;;;;;;25.33;43.21;99324.91;5095249;28;19941;-78
2023/09/24 00:12:01;;;;;;;;;;;;;;;25.20;42.99;99317.41;5095455;28;19912;-78
2023/09/24 00:14:28;;;;;;;;;;;;;;;25.12;43.23;99315.28;5095417;28;20048;-78
2023/09/24 00:16:53;;;;;;;;;;;;;;;24.96;43.56;99316.41;5095425;28;19996;-78
2023/09/24 00:19:19;;;;;;;;;;;;;;;24.92;43.73;99309.97;5077007;28;20010;-77
2023/09/24 00:21:46;;;;;;;;;;;;;;;24.89;43.40;99313.22;5095089;28;20438;-78
2023/09/24 00:24:11;;;;;;;;;;;;;;;24.86;43.56;99316.47;5076986;28;20304;-78
2023/09/24 00:26:36;;;;;;;;;;;;;;;24.81;43.78;99314.59;5095242;28;19999;-77
2023/09/24 00:29:03;;;;;;;;;;;;;;;24.75;43.77;99318.41;5095640;28;19912;-78
2023/09/24 00:31:30;;;;;;;;;;;;;;;24.73;43.95;99311.66;5095138;28;19948;-78
2023/09/24 00:33:55;;;;;;;;;;;;;;;24.73;43.82;99311.66;5095203;28;19904;-78
2023/09/24 00:36:21;;;;;;;;;;;;;;;24.74;44.10;99311.38;5094959;28;20305;-78
2023/09/24 00:38:47;;;;;;;;;;;;;;;24.77;43.94;99301.94;5076834;28;19912;-77
2023/09/24 00:41:13;;;;;;;;;;;;;;;24.77;43.82;99308.13;5094897;28;19916;-77
2023/09/24 00:43:39;;;;;;;;;;;;;;;24.78;44.13;99303.53;5094944;28;19913;-77
2023/09/24 00:46:04;;;;;;;;;;;;;;;24.81;43.79;99298.41;5076621;28;19919;-77
2023/09/24 00:48:30;;;;;;;;;;;;;;;24.80;43.67;99302.19;5094977;28;19914;-78
2023/09/24 00:50:59;;;;;;;;;;;;;;;24.83;43.78;99309.72;5094751;28;19942;-77
2023/09/24 00:53:26;;;;;;;;;;;;;;;24.83;44.44;99311.63;5075453;28;19912;-77
2023/09/24 00:55:52;;;;;;;;;;;;;;;24.84;44.59;99315.94;5094414;28;20420;-78
2023/09/24 00:58:18;;;;;;;;;;;;;;;24.85;44.11;99314.84;5094716;28;20373;-77
2023/09/24 01:00:46;;;;;;;;;;;;;;;24.81;44.59;99320.00;5094512;28;19966;-77
2023/09/24 01:03:12;;;;;;;;;;;;;;;24.83;44.47;99319.72;5094660;28;19912;-78
2023/09/24 01:05:38;;;;;;;;;;;;;;;24.85;44.21;99320.25;5094551;28;19913;-77
2023/09/24 01:08:04;;;;;;;;;;;;;;;24.80;43.97;99322.97;5094539;28;19920;-79
2023/09/24 01:10:29;;;;;;;;;;;;;;;24.73;43.78;99328.69;5094496;28;19950;-78
2023/09/24 01:13:01;;;;;;;;;;;;;;;24.64;44.09;99333.03;5094083;28;19947;-78
2023/09/24 01:15:27;;;;;;;;;;;;;;;24.57;44.48;99330.63;5094451;28;19912;-77
2023/09/24 01:17:53;;;;;;;;;;;;;;;24.48;44.24;99334.13;5094275;28;19919;-78
2023/09/24 01:20:22;;;;;;;;;;;;;;;24.37;44.59;99334.16;5094013;28;20431;-77
2023/09/24 01:22:50;;;;;;;;;;;;;;;24.28;44.75;99334.97;5075789;28;19912;-78
2023/09/24 01:25:18;;;;;;;;;;;;;;;24.20;44.83;99336.31;5094104;28;19912;-77
2023/09/24 01:27:44;;;;;;;;;;;;;;;24.16;44.75;99334.44;5094286;28;20412;-78
2023/09/24 01:30:09;;;;;;;;;;;;;;;24.13;44.69;99329.59;5094145;28;19943;-78
2023/09/24 01:32:35;;;;;;;;;;;;;;;24.12;44.81;99323.38;5094129;28;20003;-77
2023/09/24 01:35:06;;;;;;;;;;;;;;;24.08;45.14;99320.41;5093959;28;19917;-77
2023/09/24 01:37:33;;;;;;;;;;;;;;;24.04;45.23;99321.22;5094080;28;19920;-78
2023/09/24 01:40:00;;;;;;;;;;;;;;;23.98;45.13;99323.13;5093911;28;19916;-77
2023/09/24 01:42:26;;;;;;;;;;;;;;;23.95;45.58;99323.66;5093811;28;19916;-77
2023/09/24 01:44:51;;;;;;;;;;;;;;;23.94;45.21;99330.16;5075592;28;19912;-78
2023/09/24 01:47:16;;;;;;;;;;;;;;;23.89;45.87;99330.16;5093743;28;19912;-77
2023/09/24 01:49:42;;;;;;;;;;;;;;;23.86;45.23;99328.00;5093598;28;19919;-79
2023/09/24 01:52:07;;;;;;;;;;;;;;;23.84;45.04;99327.44;5093619;28;19912;-77
2023/09/24 01:54:32;;;;;;;;;;;;;;;23.86;45.48;99333.38;5093483;28;19912;-78
2023/09/24 01:56:58;;;;;;;;;;;;;;;23.87;45.50;99331.50;5093746;28;20347;-76
2023/09/24 01:59:23;;;;;;;;;;;;;;;23.82;45.31;99336.88;5093374;28;19916;-77
2023/09/24 02:01:50;;;;;;;;;;;;;;;23.79;45.26;99335.53;5093391;28;19961;-77
2023/09/24 02:04:16;;;;;;;;;;;;;;;23.82;45.59;99345.78;5093424;28;19912;-75
2023/09/24 02:06:41;;;;;;;;;;;;;;;23.84;45.23;99350.91;5074724;28;20073;-76
2023/09/24 02:09:07;;;;;;;;;;;;;;;23.82;45.65;99348.47;5075193;28;19919;-77
2023/09/24 02:11:32;;;;;;;;;;;;;;;23.82;45.28;99344.97;5093087;28;19912;-77
2023/09/24 02:13:58;;;;;;;;;;;;;;;23.77;45.24;99343.06;5093193;28;19911;-77
2023/09/24 02:16:24;;;;;;;;;;;;;;;23.72;45.64;99343.88;5074895;28;19912;-77
2023/09/24 02:18:49;;;;;;;;;;;;;;;23.63;45.50;99345.47;5092869;28;19920;-77
2023/09/24 02:21:15;;;;;;;;;;;;;;;23.61;45.99;99344.94;5092643;28;19923;-78
2023/09/24 02:23:44;;;;;;;;;;;;;;;23.62;46.14;99343.84;5092756;28;19912;-77
2023/09/24 02:26:09;;;;;;;;;;;;;;;23.60;45.84;99340.63;5092764;28;20332;-77
2023/09/24 02:28:38;;;;;;;;;;;;;;;23.57;45.77;99345.75;5092839;28;20033;-77
2023/09/24 02:31:05;;;;;;;;;;;;;;;23.55;45.64;99346.00;5092776;28;19912;-77
2023/09/24 02:33:30;;;;;;;;;;;;;;;23.54;45.98;99349.75;5092792;28;19969;-77
2023/09/24 02:35:55;;;;;;;;;;;;;;;23.46;46.82;99347.56;5092241;28;20359;-78
2023/09/24 02:38:22;;;;;;;;;;;;;;;23.40;46.88;99340.56;5074265;28;19912;-77
2023/09/24 02:40:47;;;;;;;;;;;;;;;23.37;46.74;99347.28;5074371;28;19945;-77
2023/09/24 02:43:13;;;;;;;;;;;;;;;23.34;46.46;99338.94;5074456;28;19916;-77
2023/09/24 02:45:38;;;;;;;;;;;;;;;23.34;46.62;99336.25;5092604;28;19912;-77
2023/09/24 02:48:06;;;;;;;;;;;;;;;23.32;46.79;99333.81;5092576;28;19912;-77
2023/09/24 02:50:32;;;;;;;;;;;;;;;23.30;46.34;99338.66;5092547;28;19912;-77
2023/09/24 02:52:58;;;;;;;;;;;;;;;23.25;46.95;99340.53;5092491;28;20689;-76
2023/09/24 02:55:25;;;;;;;;;;;;;;;23.22;46.84;99336.47;5074271;28;19912;-78
2023/09/24 02:57:50;;;;;;;;;;;;;;;23.19;46.83;99336.22;5092290;28;20286;-77
2023/09/24 03:00:25;;;;;;;;;;;;;;;23.13;46.55;99338.06;5092311;28;19916;-76
2023/09/24 03:02:53;;;;;;;;;;;;;;;23.10;46.86;99339.41;5074245;28;19948;-77
2023/09/24 03:05:24;;;;;;;;;;;;;;;23.04;47.62;99348.56;5092102;28;20400;-77
2023/09/24 03:07:53;;;;;;;;;;;;;;;23.00;47.58;99343.94;5092478;28;20369;-77
2023/09/24 03:10:19;;;;;;;;;;;;;;;22.95;47.00;99349.28;5092344;28;19922;-77
2023/09/24 03:12:45;;;;;;;;;;;;;;;22.88;46.77;99341.47;5073974;28;20424;-77
2023/09/24 03:15:11;;;;;;;;;;;;;;;22.82;47.48;99348.72;5092141;28;19947;-78
2023/09/24 03:17:37;;;;;;;;;;;;;;;22.77;47.38;99348.66;5091247;28;19963;-77
2023/09/24 03:20:15;;;;;;;;;;;;;;;22.74;47.68;99361.81;5073822;28;19916;-77
2023/09/24 03:22:41;;;;;;;;;;;;;;;22.71;47.56;99363.16;5092065;28;19912;-77
2023/09/24 03:25:10;;;;;;;;;;;;;;;22.68;47.98;99363.69;5091975;28;19993;-77
2023/09/24 03:27:35;;;;;;;;;;;;;;;22.61;48.60;99357.72;5073897;28;19912;-77
2023/09/24 03:30:01;;;;;;;;;;;;;;;22.62;47.79;99363.91;5092100;28;20410;-78
2023/09/24 03:32:26;;;;;;;;;;;;;;;22.58;48.31;99365.50;5092124;28;19915;-77
2023/09/24 03:34:52;;;;;;;;;;;;;;;22.62;48.42;99374.69;5092249;28;19995;-77
2023/09/24 03:37:18;;;;;;;;;;;;;;;22.65;47.96;99380.34;5091801;28;19993;-78
2023/09/24 03:39:43;;;;;;;;;;;;;;;22.67;48.16;99378.22;5091936;28;20470;-78
2023/09/24 03:42:08;;;;;;;;;;;;;;;22.70;47.82;99377.69;5091894;28;20016;-78
2023/09/24 03:44:34;;;;;;;;;;;;;;;22.73;47.98;99376.34;5092254;28;19912;-77
2023/09/24 03:46:59;;;;;;;;;;;;;;;22.69;48.39;99368.00;5091850;28;19916;-77
2023/09/24 03:49:24;;;;;;;;;;;;;;;22.70;48.66;99361.53;5091912;28;19957;-77
2023/09/24 03:51:49;;;;;;;;;;;;;;;22.71;48.61;99367.75;5074014;28;20039;-77
2023/09/24 03:54:15;;;;;;;;;;;;;;;22.73;48.52;99371.78;5092269;28;19961;-77
2023/09/24 03:56:42;;;;;;;;;;;;;;;22.73;49.06;99371.78;5091971;28;19919;-78
2023/09/24 03:59:07;;;;;;;;;;;;;;;22.74;49.24;99369.91;5091600;28;19954;-78
2023/09/24 04:01:33;;;;;;;;;;;;;;;22.76;48.84;99371.25;5073566;28;19947;-78
2023/09/24 04:04:00;;;;;;;;;;;;;;;22.79;48.40;99376.13;5091805;28;19912;-78
2023/09/24 04:06:25;;;;;;;;;;;;;;;22.85;48.39;99385.06;5091995;28;20472;-77
2023/09/24 04:08:51;;;;;;;;;;;;;;;22.88;48.72;99389.13;5091982;28;19995;-77
2023/09/24 04:11:18;;;;;;;;;;;;;;;22.89;48.00;99396.13;5073576;28;19955;-77
2023/09/24 04:13:45;;;;;;;;;;;;;;;22.81;48.14;99406.31;5091035;28;20483;-77
2023/09/24 04:16:12;;;;;;;;;;;;;;;22.78;49.09;99409.50;5073471;28;19919;-77
2023/09/24 04:18:37;;;;;;;;;;;;;;;22.74;48.63;99416.47;5091432;28;19961;-78
2023/09/24 04:21:02;;;;;;;;;;;;;;;22.70;48.38;99415.38;5073150;28;20972;-78
2023/09/24 04:23:28;;;;;;;;;;;;;;;22.54;50.20;99407.47;5073174;28;19912;-77
2023/09/24 04:25:54;;;;;;;;;;;;;;;22.40;49.06;99413.28;5091406;28;19912;-77
2023/09/24 04:28:19;;;;;;;;;;;;;;;22.33;48.95;99412.72;5092463;28;20358;-78
2023/09/24 04:30:45;;;;;;;;;;;;;;;22.24;49.28;99416.91;5095318;28;20342;-79
2023/09/24 04:33:10;;;;;;;;;;;;;;;22.16;49.95;99412.00;5095197;28;20397;-77
2023/09/24 04:35:35;;;;;;;;;;;;;;;22.09;49.32;99414.91;5095010;28;20440;-78
2023/09/24 04:38:01;;;;;;;;;;;;;;;22.02;50.72;99411.59;5095166;28;19923;-76
2023/09/24 04:40:27;;;;;;;;;;;;;;;22.00;49.81;99405.66;5095005;28;19981;-77
2023/09/24 04:42:52;;;;;;;;;;;;;;;21.99;50.81;99398.66;5076599;28;19912;-77
2023/09/24 04:45:17;;;;;;;;;;;;;;;22.00;49.91;99400.28;5094769;28;19956;-77
2023/09/24 04:47:43;;;;;;;;;;;;;;;22.01;50.92;99399.22;5094993;28;19912;-77
2023/09/24 04:50:12;;;;;;;;;;;;;;;22.03;50.34;99397.13;5095274;28;19911;-77
2023/09/24 04:52:38;;;;;;;;;;;;;;;22.11;49.72;99396.66;5094840;28;20397;-77
2023/09/24 04:55:05;;;;;;;;;;;;;;;22.14;50.54;99398.00;5076549;28;19918;-77
2023/09/24 04:57:30;;;;;;;;;;;;;;;22.12;50.44;99405.53;5076789;28;20380;-77
2023/09/24 04:59:55;;;;;;;;;;;;;;;22.14;50.15;99411.47;5094490;28;19923;-77
2023/09/24 05:02:21;;;;;;;;;;;;;;;22.16;49.27;99420.88;5094568;28;19985;-77
2023/09/24 05:04:50;;;;;;;;;;;;;;;22.19;50.45;99425.75;5094846;28;19965;-77
2023/09/24 05:07:15;;;;;;;;;;;;;;;22.20;49.75;99416.63;5094436;28;19908;-77
2023/09/24 05:09:41;;;;;;;;;;;;;;;22.21;50.53;99417.44;5076170;28;19912;-77
2023/09/24 05:12:06;;;;;;;;;;;;;;;22.25;49.14;99412.34;5094234;28;19908;-77
2023/09/24 05:14:31;;;;;;;;;;;;;;;22.17;49.60;99411.75;5080697;28;19912;-77
2023/09/24 05:16:58;;;;;;;;;;;;;;;22.18;50.50;99413.38;5100941;28;20312;-78
2023/09/24 05:19:23;;;;;;;;;;;;;;;22.19;50.05;99420.38;5100581;28;19913;-79
2023/09/24 05:21:48;;;;;;;;;;;;;;;22.28;49.94;99420.72;5099296;28;19918;-77
2023/09/24 05:24:14;;;;;;;;;;;;;;;22.38;49.67;99426.19;5076140;28;19912;-77
2023/09/24 05:26:40;;;;;;;;;;;;;;;22.40;49.83;99426.75;5094102;28;19965;-77
2023/09/24 05:29:05;;;;;;;;;;;;;;;22.46;49.59;99422.22;5094161;28;19919;-77
2023/09/24 05:31:31;;;;;;;;;;;;;;;22.56;49.53;99426.84;5093830;28;19912;-77
2023/09/24 05:33:56;;;;;;;;;;;;;;;22.65;49.37;99428.00;5093764;28;19914;-77
2023/09/24 05:36:22;;;;;;;;;;;;;;;22.69;50.02;99426.41;5075355;28;19920;-77
2023/09/24 05:38:48;;;;;;;;;;;;;;;22.69;49.67;99431.78;5093655;28;20465;-77
2023/09/24 05:41:13;;;;;;;;;;;;;;;22.71;49.33;99433.13;5093058;28;19916;-78
2023/09/24 05:43:44;;;;;;;;;;;;;;;22.77;49.17;99429.41;5094005;28;19919;-78
2023/09/24 05:46:09;;;;;;;;;;;;;;;22.83;49.73;99433.78;5094146;28;20001;-77
2023/09/24 05:48:35;;;;;;;;;;;;;;;22.91;49.22;99435.16;5093991;28;19998;-77
2023/09/24 05:51:02;;;;;;;;;;;;;;;23.00;49.77;99430.09;5093995;28;20323;-78
2023/09/24 05:53:27;;;;;;;;;;;;;;;23.06;49.59;99437.16;5075584;28;20092;-76
2023/09/24 05:55:53;;;;;;;;;;;;;;;23.15;49.71;99440.97;5075339;28;20006;-76
2023/09/24 05:58:18;;;;;;;;;;;;;;;23.19;49.83;99439.38;5093269;28;19912;-78
2023/09/24 06:00:45;;;;;;;;;;;;;;;23.26;49.88;99439.94;5093313;28;20331;-78
2023/09/24 06:03:13;;;;;;;;;;;;;;;23.31;49.45;99428.38;5093562;28;19916;-76
2023/09/24 06:05:41;;;;;;;;;;;;;;;23.40;49.63;99437.56;5093459;28;19916;-76
2023/09/24 06:08:06;;;;;;;;;;;;;;;23.44;49.96;99436.78;5093273;28;19920;-76
2023/09/24 06:10:32;;;;;;;;;;;;;;;23.49;50.42;99441.38;5093078;28;19938;-77
2023/09/24 06:12:57;;;;;;;;;;;;;;;23.54;50.34;99452.16;5093180;28;19912;-77
2023/09/24 06:15:22;;;;;;;;;;;;;;;23.62;49.36;99456.25;5093425;28;19916;-78
2023/09/24 06:17:51;;;;;;;;;;;;;;;23.69;49.53;99459.50;5075672;28;19919;-76
2023/09/24 06:20:16;;;;;;;;;;;;;;;23.73;50.36;99463.28;5087809;28;19975;-76
2023/09/24 06:22:52;;;;;;;;;;;;;;;23.72;49.39;99465.19;5112260;28;19919;-77
2023/09/24 06:25:17;;;;;;;;;;;;;;;23.77;49.15;99472.47;5093676;28;19912;-78
2023/09/24 06:27:42;;;;;;;;;;;;;;;23.77;49.14;99464.38;5074693;28;19919;-78
2023/09/24 06:30:08;;;;;;;;;;;;;;;23.86;48.96;99473.59;5093070;28;20478;-77
2023/09/24 06:32:33;;;;;;;;;;;;;;;23.91;48.63;99472.78;5092682;28;19912;-77
2023/09/24 06:34:59;;;;;;;;;;;;;;;23.99;48.93;99475.78;5092699;28;19912;-77
2023/09/24 06:37:24;;;;;;;;;;;;;;;24.02;48.28;99469.84;5092541;28;19974;-77
2023/09/24 06:39:49;;;;;;;;;;;;;;;24.08;48.62;99471.47;5092633;28;19966;-76
2023/09/24 06:42:14;;;;;;;;;;;;;;;24.15;48.19;99462.31;5092722;28;19977;-77
2023/09/24 06:44:40;;;;;;;;;;;;;;;24.22;48.22;99462.84;5092814;28;20373;-77
2023/09/24 06:47:05;;;;;;;;;;;;;;;24.24;48.48;99461.50;5092586;28;19911;-77
2023/09/24 06:49:30;;;;;;;;;;;;;;;24.31;47.19;99461.25;5074440;28;20296;-77
2023/09/24 06:51:56;;;;;;;;;;;;;;;24.36;48.21;99461.25;5092393;28;19994;-77
2023/09/24 06:54:21;;;;;;;;;;;;;;;24.41;48.41;99458.56;5092256;28;20392;-77
2023/09/24 06:56:46;;;;;;;;;;;;;;;24.47;48.34;99462.88;5092629;28;19944;-78
2023/09/24 06:59:12;;;;;;;;;;;;;;;24.53;47.57;99463.72;5074217;28;20419;-77
2023/09/24 07:01:37;;;;;;;;;;;;;;;24.62;48.04;99467.47;5092415;28;19916;-77
2023/09/24 07:04:05;;;;;;;;;;;;;;;24.68;47.93;99471.78;5092822;28;19916;-77
2023/09/24 07:06:31;;;;;;;;;;;;;;;24.75;47.14;99466.09;5092435;28;19919;-77
2023/09/24 07:08:58;;;;;;;;;;;;;;;24.81;47.15;99465.81;5092162;28;19919;-78
2023/09/24 07:11:23;;;;;;;;;;;;;;;24.93;46.26;99468.22;5092073;28;19982;-78
2023/09/24 07:13:49;;;;;;;;;;;;;;;24.98;47.03;99460.94;5073735;28;20377;-78
2023/09/24 07:16:14;;;;;;;;;;;;;;;25.05;46.31;99463.38;5092073;28;19912;-78
2023/09/24 07:18:40;;;;;;;;;;;;;;;25.13;46.54;99465.50;5092187;28;20395;-77
2023/09/24 07:21:05;;;;;;;;;;;;;;;25.18;47.26;99462.78;5091855;28;19916;-78
2023/09/24 07:23:31;;;;;;;;;;;;;;;25.24;46.73;99466.28;5073802;28;19919;-77
2023/09/24 07:25:56;;;;;;;;;;;;;;;25.29;46.71;99461.69;5073980;28;19908;-78
2023/09/24 07:28:24;;;;;;;;;;;;;;;25.37;46.21;99459.50;5073853;28;20403;-76
2023/09/24 07:30:49;;;;;;;;;;;;;;;25.43;46.07;99453.78;5091803;28;19912;-78
2023/09/24 07:33:15;;;;;;;;;;;;;;;25.53;44.95;99450.22;5091656;28;20292;-78
2023/09/24 07:35:40;;;;;;;;;;;;;;;25.59;44.55;99452.63;5091633;28;19921;-76
2023/09/24 07:38:05;;;;;;;;;;;;;;;25.69;44.58;99459.91;5073703;28;20304;-78
2023/09/24 07:40:30;;;;;;;;;;;;;;;25.80;44.31;99458.75;5091620;28;21007;-79
2023/09/24 07:42:56;;;;;;;;;;;;;;;25.87;44.50;99451.13;5073673;28;19920;-78
2023/09/24 07:45:22;;;;;;;;;;;;;;;25.96;44.09;99454.03;5091843;28;19981;-76
2023/09/24 07:47:47;;;;;;;;;;;;;;;26.06;43.78;99451.31;5091841;28;19912;-76
2023/09/24 07:50:12;;;;;;;;;;;;;;;26.12;43.60;99457.47;5091914;28;20281;-77
2023/09/24 07:52:38;;;;;;;;;;;;;;;26.16;42.98;99455.81;5074060;28;19912;-76
2023/09/24 07:55:04;;;;;;;;;;;;;;;26.26;42.88;99458.44;5091870;28;19912;-78
2023/09/24 07:57:30;;;;;;;;;;;;;;;26.31;43.03;99463.81;5091653;28;19969;-77
2023/09/24 07:59:55;;;;;;;;;;;;;;;26.39;42.39;99463.25;5091568;28;19916;-78
2023/09/24 08:02:21;;;;;;;;;;;;;;;26.46;42.38;99457.50;5091574;28;20360;-76
2023/09/24 08:04:46;;;;;;;;;;;;;;;26.52;42.50;99453.66;5095040;28;20021;-77
2023/09/24 08:07:11;;;;;;;;;;;;;;;26.57;42.69;99445.47;5095548;28;19984;-77
2023/09/24 08:09:38;;;;;;;;;;;;;;;26.65;42.77;99441.34;5077465;28;20007;-77
2023/09/24 08:12:03;;;;;;;;;;;;;;;26.72;42.96;99444.53;5095612;28;19912;-76
2023/09/24 08:14:29;;;;;;;;;;;;;;;26.81;42.65;99442.84;5095635;28;19912;-77
2023/09/24 08:16:54;;;;;;;;;;;;;;;26.92;42.42;99433.50;5095932;28;19912;-78
2023/09/24 08:19:19;;;;;;;;;;;;;;;27.02;41.96;99435.31;5096886;28;19966;-78
2023/09/24 08:21:45;;;;;;;;;;;;;;;27.05;41.61;99424.69;5097385;28;19935;-79
2023/09/24 08:24:10;;;;;;;;;;;;;;;27.14;41.34;99425.69;5077287;28;19919;-75
2023/09/24 08:26:36;;;;;;;;;;;;;;;27.28;41.47;99424.97;5095200;28;20381;-77
2023/09/24 08:29:05;;;;;;;;;;;;;;;27.39;41.54;99426.44;5094986;28;20320;-78
2023/09/24 08:31:31;;;;;;;;;;;;;;;27.46;41.25;99433.13;5076752;28;19912;-76
2023/09/24 08:33:57;;;;;;;;;;;;;;;27.49;39.58;99427.13;5094872;28;20383;-78
2023/09/24 08:36:22;;;;;;;;;;;;;;;27.61;39.98;99436.78;5094891;28;19942;-77
2023/09/24 08:38:48;;;;;;;;;;;;;;;27.73;39.83;99432.53;5094920;28;19970;-76
2023/09/24 08:41:13;;;;;;;;;;;;;;;27.86;38.97;99436.41;5094818;28;20006;-78
2023/09/24 08:43:41;;;;;;;;;;;;;;;27.97;39.57;99427.00;5094782;28;19951;-76
2023/09/24 08:46:08;;;;;;;;;;;;;;;28.06;39.39;99417.09;5094600;28;19999;-77
2023/09/24 08:48:34;;;;;;;;;;;;;;;28.14;38.58;99410.19;5094818;28;20032;-76
2023/09/24 08:51:00;;;;;;;;;;;;;;;28.27;39.12;99403.25;5094814;28;19949;-77
2023/09/24 08:53:28;;;;;;;;;;;;;;;28.41;39.26;99396.75;5094812;28;20445;-76
2023/09/24 08:55:54;;;;;;;;;;;;;;;28.55;38.81;99396.75;5094507;28;19912;-76
2023/09/24 08:58:19;;;;;;;;;;;;;;;28.69;37.73;99396.78;5076334;28;20002;-77
2023/09/24 09:00:44;;;;;;;;;;;;;;;28.82;38.29;99387.00;5094446;28;19920;-77
2023/09/24 09:03:10;;;;;;;;;;;;;;;28.89;37.42;99395.59;5076300;28;19920;-77
2023/09/24 09:05:36;;;;;;;;;;;;;;;28.96;38.17;99391.38;5094643;28;20413;-76
2023/09/24 09:08:03;;;;;;;;;;;;;;;29.07;38.05;99386.56;5094546;28;20281;-75
2023/09/24 09:10:38;;;;;;;;;;;;;;;29.17;37.95;99394.50;5094404;28;19916;-79
2023/09/24 09:13:10;;;;;;;;;;;;;;;29.30;38.58;99387.41;5094511;28;19916;-78
2023/09/24 09:15:37;;;;;;;;;;;;;;;29.39;37.89;99391.84;5093034;28;19912;-77
2023/09/24 09:18:03;;;;;;;;;;;;;;;29.50;37.36;99381.56;5094127;28;19916;-76
2023/09/24 09:20:45;;;;;;;;;;;;;;;29.62;37.34;99386.47;5094267;28;19923;-78
2023/09/24 09:23:13;;;;;;;;;;;;;;;29.71;36.71;99374.53;5094399;28;20458;-76
2023/09/24 09:25:52;;;;;;;;;;;;;;;29.87;36.69;99375.00;5094186;28;20404;-76
2023/09/24 09:28:18;;;;;;;;;;;;;;;30.00;36.80;99371.41;5094156;28;19992;-76
2023/09/24 09:30:56;;;;;;;;;;;;;;;30.13;36.29;99377.91;5094139;28;19912;-76
2023/09/24 09:33:24;;;;;;;;;;;;;;;30.21;36.31;99370.91;5094033;28;19918;-77
2023/09/24 09:35:51;;;;;;;;;;;;;;;30.31;36.03;99366.00;5075582;28;19920;-77
2023/09/24 09:38:16;;;;;;;;;;;;;;;30.47;35.18;99377.31;5093910;28;19938;-77
2023/09/24 09:40:42;;;;;;;;;;;;;;;30.62;34.06;99376.13;5093861;28;19947;-77
2023/09/24 09:43:08;;;;;;;;;;;;;;;30.79;34.96;99372.66;5093801;28;19987;-77
2023/09/24 09:45:34;;;;;;;;;;;;;;;30.86;34.64;99365.63;5093776;28;19955;-77
2023/09/24 09:48:03;;;;;;;;;;;;;;;30.98;35.79;99374.00;5093604;28;19924;-77
2023/09/24 09:50:31;;;;;;;;;;;;;;;31.03;34.33;99361.34;5075666;28;19909;-77
2023/09/24 09:52:57;;;;;;;;;;;;;;;31.06;34.37;99358.78;5093345;28;20330;-76
2023/09/24 09:55:23;;;;;;;;;;;;;;;31.13;34.60;99361.03;5091985;28;20294;-75
2023/09/24 09:57:49;;;;;;;;;;;;;;;31.16;34.63;99357.72;5093526;28;19937;-77
2023/09/24 10:00:16;;;;;;;;;;;;;;;31.19;33.73;99363.34;5093353;28;20045;-76
2023/09/24 10:02:43;;;;;;;;;;;;;;;31.27;33.69;99351.66;5093457;28;19920;-78
2023/09/24 10:05:11;;;;;;;;;;;;;;;31.47;33.83;99350.22;5093534;28;20009;-76
2023/09/24 10:07:37;;;;;;;;;;;;;;;31.70;33.84;99339.97;5093318;28;19912;-75
2023/09/24 10:10:22;;;;;;;;;;;;;;;31.88;33.13;99336.09;5074881;28;19912;-76
2023/09/24 10:12:47;;;;;;;;;;;;;;;32.00;33.51;99332.72;5093228;28;19908;-76
2023/09/24 10:15:43;;;;;;;;;;;;;;;32.04;33.72;99335.59;5094353;28;19995;-78
2023/09/24 10:18:11;;;;;;;;;;;;;;;32.08;33.00;99331.09;5060004;28;19912;-77
2023/09/24 10:20:48;;;;;;;;;;;;;;;32.12;31.94;99329.31;5106153;28;19923;-77
2023/09/24 10:23:29;;;;;;;;;;;;;;;32.16;32.20;99328.34;5109151;28;19912;-77
2023/09/24 10:25:56;;;;;;;;;;;;;;;32.31;32.55;99327.03;5093178;28;19919;-77
2023/09/24 10:28:21;;;;;;;;;;;;;;;32.44;33.23;99327.94;5075257;28;19969;-78
2023/09/24 10:31:05;;;;;;;;;;;;;;;32.53;32.86;99320.50;5093036;28;20381;-77
2023/09/24 10:33:49;;;;;;;;;;;;;;;32.55;32.56;99310.03;5092871;28;20380;-77
2023/09/24 10:36:19;;;;;;;;;;;;;;;32.54;32.18;99311.97;5074252;28;20381;-77
2023/09/24 10:39:04;;;;;;;;;;;;;;;32.54;33.29;99325.63;5092860;28;19953;-77
2023/09/24 10:41:30;;;;;;;;;;;;;;;32.62;32.86;99317.72;5092655;28;20312;-77
2023/09/24 10:44:14;;;;;;;;;;;;;;;32.84;33.11;99320.22;5092506;28;19913;-77
2023/09/24 10:46:39;;;;;;;;;;;;;;;33.09;31.24;99316.53;5074588;28;20006;-77
2023/09/24 10:49:04;;;;;;;;;;;;;;;33.31;32.16;99312.69;5075601;28;20372;-77
2023/09/24 10:51:30;;;;;;;;;;;;;;;33.55;30.93;99306.53;5086613;28;19962;-77
2023/09/24 10:54:11;;;;;;;;;;;;;;;33.72;32.31;99308.31;5103560;28;19912;-76
2023/09/24 10:56:36;;;;;;;;;;;;;;;33.80;28.93;99301.94;5102303;28;19912;-77
2023/09/24 10:59:02;;;;;;;;;;;;;;;33.75;29.56;99299.44;5080422;28;19934;-78
2023/09/24 11:01:30;;;;;;;;;;;;;;;33.71;31.33;99299.31;5092199;28;19916;-77
2023/09/24 11:03:56;;;;;;;;;;;;;;;33.59;30.76;99292.97;5092149;28;19991;-77
2023/09/24 11:06:34;;;;;;;;;;;;;;;33.50;30.16;99290.31;5074179;28;20011;-77
2023/09/24 11:09:12;;;;;;;;;;;;;;;33.46;30.11;99286.66;5074087;28;20297;-78
2023/09/24 11:11:38;;;;;;;;;;;;;;;33.53;30.56;99288.84;5092062;28;19919;-77
2023/09/24 11:14:14;;;;;;;;;;;;;;;33.76;30.12;99277.19;5073897;28;19916;-77
2023/09/24 11:16:39;;;;;;;;;;;;;;;34.10;30.48;99272.47;5092027;28;19912;-78
2023/09/24 11:19:04;;;;;;;;;;;;;;;34.29;29.61;99271.94;5073710;28;19919;-78
2023/09/24 11:21:31;;;;;;;;;;;;;;;34.49;29.76;99279.28;5091843;28;19916;-78
2023/09/24 11:23:56;;;;;;;;;;;;;;;34.70;28.94;99268.97;5091766;28;19912;-77
2023/09/24 11:26:30;;;;;;;;;;;;;;;34.83;28.88;99267.06;5091921;28;19954;-77
2023/09/24 11:28:56;;;;;;;;;;;;;;;34.98;28.58;99271.84;5073663;28;19935;-76
2023/09/24 11:31:26;;;;;;;;;;;;;;;35.08;27.74;99262.31;5073721;28;20355;-76
2023/09/24 11:33:57;;;;;;;;;;;;;;;35.10;27.47;99260.03;5091976;28;19969;-77
2023/09/24 11:36:27;;;;;;;;;;;;;;;35.19;27.03;99251.66;5091761;28;19920;-77
2023/09/24 11:39:03;;;;;;;;;;;;;;;35.16;29.48;99258.63;5091029;28;19912;-78
2023/09/24 11:41:28;;;;;;;;;;;;;;;35.13;27.72;99253.84;5091726;28;19927;-77
2023/09/24 11:43:56;;;;;;;;;;;;;;;35.15;27.39;99248.81;5073788;28;19912;-76
2023/09/24 11:46:25;;;;;;;;;;;;;;;35.19;28.02;99249.72;5091794;28;19912;-78
2023/09/24 11:48:52;;;;;;;;;;;;;;;35.18;27.96;99239.06;5073786;28;20381;-77
2023/09/24 11:51:20;;;;;;;;;;;;;;;35.15;27.96;99243.31;5091724;28;20297;-77
2023/09/24 11:53:45;;;;;;;;;;;;;;;35.03;27.84;99246.09;5091603;28;19912;-77
2023/09/24 11:56:10;;;;;;;;;;;;;;;34.85;27.30;99236.53;5091835;28;19984;-78
2023/09/24 11:58:36;;;;;;;;;;;;;;;34.76;28.37;99235.84;5091594;28;19919;-78
2023/09/24 12:01:04;;;;;;;;;;;;;;;34.66;28.27;99240.66;5091653;28;20361;-77
2023/09/24 12:03:29;;;;;;;;;;;;;;;34.55;28.11;99228.56;5091697;28;19919;-77
2023/09/24 12:05:54;;;;;;;;;;;;;;;34.47;28.88;99223.19;5091544;28;19916;-77
2023/09/24 12:08:20;;;;;;;;;;;;;;;34.38;28.40;99226.06;5091508;28;20387;-77
2023/09/24 12:10:50;;;;;;;;;;;;;;;34.30;28.52;99226.94;5091494;28;19909;-76
2023/09/24 12:13:16;;;;;;;;;;;;;;;34.21;28.33;99223.53;5091566;28;19919;-77
2023/09/24 12:15:41;;;;;;;;;;;;;;;34.13;28.67;99222.47;5073611;28;19997;-76
2023/09/24 12:18:07;;;;;;;;;;;;;;;34.06;29.09;99217.56;5091726;28;19946;-77
2023/09/24 12:20:34;;;;;;;;;;;;;;;34.00;30.12;99221.66;5091476;28;20385;-77
2023/09/24 12:23:01;;;;;;;;;;;;;;;33.90;29.62;99210.34;5075365;28;19912;-77
2023/09/24 12:25:26;;;;;;;;;;;;;;;33.85;29.58;99211.38;5096629;28;19912;-77
2023/09/24 12:27:52;;;;;;;;;;;;;;;33.82;28.25;99205.78;5073201;28;19968;-77
2023/09/24 12:30:17;;;;;;;;;;;;;;;33.77;29.31;99210.31;5091291;28;19997;-77
2023/09/24 12:32:43;;;;;;;;;;;;;;;33.71;29.19;99203.47;5073616;28;19970;-77
2023/09/24 12:35:09;;;;;;;;;;;;;;;33.64;28.66;99202.41;5091326;28;19919;-78
2023/09/24 12:37:37;;;;;;;;;;;;;;;33.58;28.12;99201.84;5091390;28;19916;-77
2023/09/24 12:40:07;;;;;;;;;;;;;;;33.54;28.35;99200.91;5073255;28;19943;-77
2023/09/24 12:42:37;;;;;;;;;;;;;;;33.53;27.97;99193.84;5091496;28;19919;-78
2023/09/24 12:45:03;;;;;;;;;;;;;;;33.55;28.43;99194.31;5091380;28;19919;-78
2023/09/24 12:47:28;;;;;;;;;;;;;;;33.59;28.47;99200.69;5091191;28;19998;-77